Norma, North Dakota
Current Conditions -  °F | °C
As of 2:35 AM on Saturday 25 Oct 2014 (Local Time) from K08D Reporting Station
NA  
Wind Chill: 30°   Ceiling: NA
Heat Index: 36°   Visibility: 10mi
Dew Point: 32°   Wind: 7mph
Humidity: 87%   Direction: 290°WNW
Pressure: 30.06"   Gusts: NA
Location:  48.6651°N, 102.033°W
Report Text: K08D 250735Z AUTO 29006KT 10SM 02/00 A3006 RMK AO2
Loading
Personal Weather Stations






























Interactive Weather Map
Tropical Storm Tracking
New forecast layout! Learn more

10-Day Weather Forecast

Advertisements
Track Severe Weather on mobile